Time;durP1;ratioP1;P1;durP2;ratioP2;P2;SDS_P1;SDS_P2;PMS_P1;PMS_P2;Temp;Humidity;BMP_temperature;BMP_pressure;BME280_temperature;BME280_humidity;BME280_pressure;Samples;Min_cycle;Max_cycle;Signal;HPM_P1;HPM_P2
2021/08/25 00:02:10;;;;;;;8.27;6.22;;;538.30;2406.40;;;;;;5073576;28;20017;-82
2021/08/25 00:04:37;;;;;;;10.55;6.78;;;538.30;2406.40;;;;;;5070573;28;20031;-75
2021/08/25 00:07:03;;;;;;;8.65;7.32;;;538.10;2406.40;;;;;;5073685;28;20040;-78
2021/08/25 00:09:29;;;;;;;11.63;6.72;;;537.90;2406.40;;;;;;5073638;28;20029;-80
2021/08/25 00:11:55;;;;;;;13.88;7.20;;;537.90;2406.40;;;;;;5094132;28;20019;-79
2021/08/25 00:14:21;;;;;;;10.20;7.18;;;537.80;2406.40;;;;;;5094458;28;20098;-77
2021/08/25 00:16:47;;;;;;;9.27;6.85;;;537.70;2406.40;;;;;;5094704;28;20099;-76
2021/08/25 00:19:13;;;;;;;11.85;6.82;;;537.70;2406.40;;;;;;5095889;28;20022;-82
2021/08/25 00:21:39;;;;;;;10.93;6.30;;;537.60;2406.40;;;;;;5095551;28;20381;-76
2021/08/25 00:24:04;;;;;;;16.77;7.03;;;537.90;2406.40;;;;;;5095398;28;20038;-78
2021/08/25 00:26:30;;;;;;;9.25;6.75;;;537.90;2406.40;;;;;;5095809;28;20598;-81
2021/08/25 00:28:56;;;;;;;8.30;7.20;;;537.80;2406.40;;;;;;5096021;28;20541;-81
2021/08/25 00:31:22;;;;;;;7.65;6.35;;;537.70;2406.40;;;;;;5096182;28;20019;-81
2021/08/25 00:33:47;;;;;;;10.70;6.90;;;537.90;2406.40;;;;;;5096268;28;20027;-81
2021/08/25 00:36:13;;;;;;;9.25;6.70;;;538.00;2406.40;;;;;;5097303;28;20035;-81
2021/08/25 00:38:39;;;;;;;10.13;6.40;;;538.00;2406.40;;;;;;5097126;28;20104;-81
2021/08/25 00:41:05;;;;;;;12.20;7.00;;;538.00;2406.40;;;;;;5097390;28;20032;-79
2021/08/25 00:43:30;;;;;;;10.98;7.97;;;538.00;2406.40;;;;;;5094714;28;20027;-82
2021/08/25 00:45:56;;;;;;;13.75;7.97;;;538.10;2406.40;;;;;;5094771;28;20024;-81
2021/08/25 00:48:22;;;;;;;9.93;6.63;;;538.10;2406.40;;;;;;5094043;28;20103;-80
2021/08/25 00:50:54;;;;;;;13.98;8.18;;;538.00;2406.40;;;;;;5075387;28;20032;-81
2021/08/25 00:53:22;;;;;;;9.82;6.20;;;537.90;2406.40;;;;;;5093581;28;20016;-81
2021/08/25 00:55:49;;;;;;;11.27;7.35;;;538.00;2406.40;;;;;;5092695;28;20040;-81
2021/08/25 00:58:15;;;;;;;11.18;6.65;;;537.90;2406.40;;;;;;5074570;28;20016;-81
2021/08/25 01:01:02;;;;;;;11.77;7.65;;;537.90;2406.40;;;;;;5092660;28;20043;-80
2021/08/25 01:03:44;;;;;;;12.05;8.38;;;537.70;2406.40;;;;;;5092694;28;20020;-80
2021/08/25 01:06:18;;;;;;;11.70;8.65;;;537.70;2406.40;;;;;;5091506;28;20035;-81
2021/08/25 01:08:44;;;;;;;13.90;9.80;;;537.60;2406.40;;;;;;5091049;28;20093;-81
2021/08/25 01:11:11;;;;;;;11.43;8.85;;;537.60;2406.40;;;;;;5093034;28;20020;-81
2021/08/25 01:13:37;;;;;;;17.23;10.85;;;537.60;2406.40;;;;;;5092463;28;20526;-79
2021/08/25 01:16:03;;;;;;;16.23;11.30;;;537.60;2406.40;;;;;;5092197;28;20024;-80
2021/08/25 01:18:29;;;;;;;18.08;10.77;;;537.70;2406.40;;;;;;5092013;28;20081;-79
2021/08/25 01:20:59;;;;;;;12.40;9.18;;;537.60;2406.40;;;;;;5092107;28;20480;-76
2021/08/25 01:23:25;;;;;;;11.98;9.82;;;512.90;2380.80;;;;;;5092160;28;20020;-75
2021/08/25 01:25:56;;;;;;;14.40;8.57;;;512.80;2380.80;;;;;;5092190;28;20031;-81
2021/08/25 01:28:25;;;;;;;10.07;7.40;;;512.80;2380.80;;;;;;5091949;28;20024;-76
2021/08/25 01:30:51;;;;;;;12.10;8.10;;;512.70;2380.80;;;;;;5091971;28;20036;-80
2021/08/25 01:33:24;;;;;;;14.27;7.55;;;512.80;2380.80;;;;;;5091690;28;20020;-79
2021/08/25 01:35:50;;;;;;;9.70;8.05;;;512.80;2380.80;;;;;;5091811;28;20032;-81
2021/08/25 01:38:41;;;;;;;9.85;7.97;;;512.60;2380.80;;;;;;5091468;28;20012;-74
2021/08/25 01:41:07;;;;;;;13.70;8.75;;;512.40;2380.80;;;;;;5091802;28;20027;-80
2021/08/25 01:43:34;;;;;;;12.35;7.15;;;512.40;2380.80;;;;;;5092003;28;20024;-81
2021/08/25 01:46:00;;;;;;;12.48;8.18;;;512.60;2380.80;;;;;;5089567;28;20023;-80
2021/08/25 01:48:25;;;;;;;9.80;6.65;;;512.40;2380.80;;;;;;5092053;28;20021;-81
2021/08/25 01:50:51;;;;;;;12.27;6.70;;;512.40;2380.80;;;;;;5091705;28;20036;-79
2021/08/25 01:53:17;;;;;;;8.18;5.88;;;512.10;2380.80;;;;;;5091916;28;20095;-81
2021/08/25 01:55:44;;;;;;;8.82;6.47;;;512.00;2380.80;;;;;;5091817;28;20118;-81
2021/08/25 01:58:10;;;;;;;8.35;5.40;;;487.20;2380.80;;;;;;5095850;28;20017;-75
2021/08/25 02:00:35;;;;;;;11.43;6.35;;;487.30;2380.80;;;;;;5095390;28;20039;-80
2021/08/25 02:03:01;;;;;;;9.52;5.80;;;487.30;2380.80;;;;;;5093027;28;20016;-75
2021/08/25 02:05:27;;;;;;;10.82;6.10;;;512.00;2380.80;;;;;;5095191;28;20024;-75
2021/08/25 02:07:52;;;;;;;7.22;5.85;;;512.20;2380.80;;;;;;5095443;28;20070;-75
2021/08/25 02:10:18;;;;;;;8.68;5.18;;;512.00;2380.80;;;;;;5095355;28;20063;-76
2021/08/25 02:12:44;;;;;;;8.95;4.97;;;512.10;2380.80;;;;;;5095318;28;20448;-75
2021/08/25 02:15:10;;;;;;;8.18;4.38;;;487.30;2380.80;;;;;;5095438;28;20031;-76
2021/08/25 02:17:36;;;;;;;5.75;4.53;;;487.30;2380.80;;;;;;5095496;28;20012;-80
2021/08/25 02:20:04;;;;;;;7.03;4.30;;;487.20;2380.80;;;;;;5093568;28;20038;-75
2021/08/25 02:22:30;;;;;;;5.32;4.30;;;487.20;2380.80;;;;;;5095124;28;20487;-81
2021/08/25 02:24:56;;;;;;;7.97;4.28;;;487.00;2380.80;;;;;;5096549;28;20077;-80
2021/08/25 02:27:22;;;;;;;5.00;3.65;;;487.00;2380.80;;;;;;5100070;28;20020;-75
2021/08/25 02:29:55;;;;;;;6.00;4.10;;;487.00;2380.80;;;;;;5101166;28;20473;-75
2021/08/25 02:32:23;;;;;;;6.95;4.32;;;487.10;2380.80;;;;;;5095352;28;20050;-76
2021/08/25 02:34:49;;;;;;;7.30;4.40;;;487.00;2380.80;;;;;;5094488;28;20538;-75
2021/08/25 02:37:14;;;;;;;7.32;4.60;;;486.90;2380.80;;;;;;5094876;28;20024;-76
2021/08/25 02:39:40;;;;;;;6.63;5.15;;;486.80;2380.80;;;;;;5095262;28;20073;-77
2021/08/25 02:42:06;;;;;;;8.23;4.55;;;486.80;2380.80;;;;;;5077090;28;20165;-81
2021/08/25 02:44:32;;;;;;;7.88;4.40;;;486.90;2380.80;;;;;;5094989;28;20066;-75
2021/08/25 02:46:58;;;;;;;7.90;5.38;;;487.00;2380.80;;;;;;5092970;28;20041;-82
2021/08/25 02:49:24;;;;;;;7.28;5.60;;;486.90;2380.80;;;;;;5095368;28;20103;-82
2021/08/25 02:51:49;;;;;;;6.00;4.68;;;486.80;2380.80;;;;;;5095385;28;20012;-77
2021/08/25 02:54:15;;;;;;;7.47;4.70;;;486.80;2380.80;;;;;;5094626;28;20119;-81
2021/08/25 02:56:41;;;;;;;7.20;4.72;;;486.80;2380.80;;;;;;5095608;28;20024;-81
2021/08/25 02:59:06;;;;;;;5.78;4.28;;;486.90;2380.80;;;;;;5095338;28;20022;-82
2021/08/25 03:01:35;;;;;;;7.05;4.35;;;487.00;2380.80;;;;;;5095380;28;20020;-81
2021/08/25 03:04:01;;;;;;;5.60;4.10;;;487.00;2380.80;;;;;;5092398;28;20037;-79
2021/08/25 03:06:27;;;;;;;7.18;4.55;;;487.10;2380.80;;;;;;5094409;28;20431;-82
2021/08/25 03:08:52;;;;;;;10.55;4.63;;;487.10;2380.80;;;;;;5094901;28;20036;-80
2021/08/25 03:11:18;;;;;;;6.63;3.95;;;487.20;2380.80;;;;;;5092152;28;20468;-82
2021/08/25 03:13:44;;;;;;;5.75;3.85;;;487.30;2380.80;;;;;;5094811;28;20040;-81
2021/08/25 03:16:10;;;;;;;5.47;4.53;;;487.10;2380.80;;;;;;5095135;28;20016;-75
2021/08/25 03:18:35;;;;;;;7.22;3.90;;;487.00;2380.80;;;;;;5095103;28;20362;-86
2021/08/25 03:21:01;;;;;;;5.38;3.92;;;487.00;2380.80;;;;;;5094916;28;20039;-80
2021/08/25 03:23:27;;;;;;;8.23;4.18;;;487.00;2380.80;;;;;;5094608;28;20016;-85
2021/08/25 03:25:53;;;;;;;6.78;4.68;;;487.00;2380.80;;;;;;5094662;28;20028;-80
2021/08/25 03:28:19;;;;;;;11.15;4.78;;;487.00;2380.80;;;;;;5095055;28;20024;-83
2021/08/25 03:30:45;;;;;;;6.15;4.63;;;487.00;2380.80;;;;;;5094901;28;20092;-84
2021/08/25 03:33:11;;;;;;;8.57;5.22;;;487.00;2380.80;;;;;;5095018;28;20497;-84
2021/08/25 03:35:36;;;;;;;8.45;4.80;;;486.90;2380.80;;;;;;5094583;28;20100;-85
2021/08/25 03:38:02;;;;;;;6.55;4.85;;;486.80;2380.80;;;;;;5094671;28;20082;-78
2021/08/25 03:40:28;;;;;;;7.15;5.28;;;486.90;2380.80;;;;;;5076223;28;20020;-84
2021/08/25 03:42:54;;;;;;;6.95;5.10;;;486.70;2380.80;;;;;;5094461;28;20024;-84
2021/08/25 03:45:20;;;;;;;7.43;5.18;;;486.80;2380.80;;;;;;5094464;28;20024;-84
2021/08/25 03:47:46;;;;;;;9.07;5.25;;;486.80;2380.80;;;;;;5094450;28;20027;-84
2021/08/25 03:50:12;;;;;;;7.18;4.93;;;486.80;2380.80;;;;;;5092693;28;20028;-85
2021/08/25 03:52:38;;;;;;;5.68;4.20;;;486.70;2380.80;;;;;;5093374;28;20042;-83
2021/08/25 03:55:04;;;;;;;6.40;4.20;;;486.50;2380.80;;;;;;5093418;28;20117;-79
2021/08/25 03:57:30;;;;;;;6.38;3.95;;;486.50;2380.80;;;;;;5093762;28;20016;-76
2021/08/25 03:59:55;;;;;;;5.45;3.72;;;486.50;2380.80;;;;;;5093788;28;20108;-76
2021/08/25 04:02:21;;;;;;;5.00;3.17;;;486.40;2380.80;;;;;;5093472;28;20025;-76
2021/08/25 04:04:47;;;;;;;6.18;4.10;;;486.50;2380.80;;;;;;5093196;28;20051;-75
2021/08/25 04:07:13;;;;;;;6.45;3.65;;;486.60;2380.80;;;;;;5094297;28;20035;-84
2021/08/25 04:09:40;;;;;;;5.93;4.18;;;486.60;2380.80;;;;;;5076691;28;20028;-84
2021/08/25 04:12:06;;;;;;;7.00;3.38;;;486.60;2380.80;;;;;;5094907;28;20054;-75
2021/08/25 04:14:32;;;;;;;6.30;3.75;;;486.50;2380.80;;;;;;5095055;28;20472;-85
2021/08/25 04:16:58;;;;;;;7.88;3.92;;;486.60;2380.80;;;;;;5094581;28;20052;-85
2021/08/25 04:19:23;;;;;;;10.63;4.03;;;486.70;2380.80;;;;;;5093390;28;20377;-76
2021/08/25 04:21:49;;;;;;;5.18;3.78;;;486.80;2380.80;;;;;;5094484;28;20016;-85
2021/08/25 04:24:15;;;;;;;11.43;3.47;;;486.80;2380.80;;;;;;5094345;28;20053;-76
2021/08/25 04:26:41;;;;;;;4.85;3.53;;;486.70;2380.80;;;;;;5094277;28;20012;-84
2021/08/25 04:29:07;;;;;;;7.68;3.65;;;486.70;2380.80;;;;;;5094302;28;20408;-84
2021/08/25 04:31:33;;;;;;;5.18;3.35;;;486.60;2380.80;;;;;;5100968;28;20502;-76
2021/08/25 04:33:59;;;;;;;5.85;2.97;;;486.70;2380.80;;;;;;5102458;28;20028;-84
2021/08/25 04:36:24;;;;;;;6.88;2.10;;;486.60;2380.80;;;;;;5094094;28;20023;-83
2021/08/25 04:38:50;;;;;;;5.53;2.30;;;486.50;2380.80;;;;;;5094151;28;20027;-85
2021/08/25 04:41:16;;;;;;;7.95;2.47;;;486.50;2380.80;;;;;;5094316;28;20465;-83
2021/08/25 04:43:42;;;;;;;4.38;2.35;;;461.70;2380.80;;;;;;5095335;28;20043;-83
2021/08/25 04:46:08;;;;;;;3.67;2.00;;;461.70;2380.80;;;;;;5107296;28;20020;-85
2021/08/25 04:48:35;;;;;;;4.22;1.70;;;461.70;2380.80;;;;;;5094217;28;20024;-84
2021/08/25 04:51:00;;;;;;;2.53;1.75;;;461.70;2380.80;;;;;;5094017;28;20024;-76
2021/08/25 04:53:27;;;;;;;2.78;1.77;;;461.70;2380.80;;;;;;5094180;28;20024;-79
2021/08/25 04:55:53;;;;;;;4.57;1.50;;;461.60;2380.80;;;;;;5108847;28;20175;-75
2021/08/25 04:58:18;;;;;;;4.15;1.70;;;461.50;2380.80;;;;;;5106165;28;20020;-85
2021/08/25 05:00:46;;;;;;;3.05;1.75;;;461.60;2380.80;;;;;;5094119;28;20028;-84
2021/08/25 05:03:13;;;;;;;4.40;1.70;;;461.60;2380.80;;;;;;5093814;28;20020;-85
2021/08/25 05:05:39;;;;;;;3.50;2.00;;;461.60;2380.80;;;;;;5093365;28;20024;-84
2021/08/25 05:08:05;;;;;;;2.75;1.48;;;461.60;2380.80;;;;;;5093711;28;20016;-75
2021/08/25 05:10:31;;;;;;;2.40;1.70;;;461.60;2380.80;;;;;;5093901;28;20386;-76
2021/08/25 05:12:56;;;;;;;4.63;1.50;;;461.50;2380.80;;;;;;5093604;28;20666;-78
2021/08/25 05:15:22;;;;;;;5.50;1.80;;;461.50;2380.80;;;;;;5093635;28;20095;-76
2021/08/25 05:17:48;;;;;;;1.75;1.38;;;461.40;2380.80;;;;;;5103404;28;20034;-76
2021/08/25 05:20:13;;;;;;;3.47;1.48;;;461.40;2380.80;;;;;;5097901;28;20022;-78
2021/08/25 05:22:39;;;;;;;2.38;1.63;;;461.50;2380.80;;;;;;5093485;28;20070;-77
2021/08/25 05:25:05;;;;;;;2.08;1.50;;;461.40;2380.80;;;;;;5093463;28;20024;-76
2021/08/25 05:27:31;;;;;;;4.35;1.95;;;461.30;2380.80;;;;;;5093303;28;20015;-79
2021/08/25 05:29:57;;;;;;;3.03;1.70;;;461.40;2380.80;;;;;;5093275;28;20028;-76
2021/08/25 05:32:23;;;;;;;3.10;1.90;;;461.30;2380.80;;;;;;5093360;28;20016;-83
2021/08/25 05:34:48;;;;;;;2.53;1.60;;;461.30;2380.80;;;;;;5093003;28;20056;-76
2021/08/25 05:37:14;;;;;;;2.85;1.50;;;461.30;2380.80;;;;;;5093398;28;20488;-84
2021/08/25 05:39:40;;;;;;;4.63;1.52;;;461.30;2380.80;;;;;;5093139;28;20069;-83
2021/08/25 05:42:06;;;;;;;3.28;1.75;;;461.40;2380.80;;;;;;5093233;28;20393;-77
2021/08/25 05:44:32;;;;;;;4.55;2.75;;;461.40;2380.80;;;;;;5093127;28;20020;-76
2021/08/25 05:46:58;;;;;;;5.68;2.40;;;461.30;2380.80;;;;;;5092893;28;20124;-75
2021/08/25 05:49:24;;;;;;;2.90;1.65;;;461.30;2380.80;;;;;;5092850;28;20517;-84
2021/08/25 05:51:49;;;;;;;3.15;2.03;;;461.40;2380.80;;;;;;5093022;28;20024;-84
2021/08/25 05:54:15;;;;;;;3.83;2.42;;;461.40;2380.80;;;;;;5093465;28;20405;-76
2021/08/25 05:56:41;;;;;;;3.65;1.80;;;461.50;2380.80;;;;;;5093179;28;20028;-75
2021/08/25 05:59:07;;;;;;;2.88;1.88;;;461.50;2380.80;;;;;;5101468;28;20023;-78
2021/08/25 06:01:33;;;;;;;4.25;1.77;;;461.40;2380.80;;;;;;5092585;28;20019;-76
2021/08/25 06:03:58;;;;;;;3.83;1.48;;;461.40;2380.80;;;;;;5092447;28;20059;-76
2021/08/25 06:06:31;;;;;;;3.17;1.63;;;461.40;2380.80;;;;;;5095505;28;20097;-77
2021/08/25 06:08:57;;;;;;;5.10;2.70;;;461.40;2380.80;;;;;;5101147;28;20024;-79
2021/08/25 06:11:23;;;;;;;5.95;2.75;;;461.20;2380.80;;;;;;5096238;28;20027;-76
2021/08/25 06:13:49;;;;;;;2.83;1.55;;;461.20;2380.80;;;;;;5110427;28;20028;-76
2021/08/25 06:16:14;;;;;;;4.68;2.45;;;461.40;2380.80;;;;;;5081884;28;20511;-77
2021/08/25 06:18:40;;;;;;;4.00;2.42;;;461.40;2380.80;;;;;;5092677;28;20039;-76
2021/08/25 06:21:06;;;;;;;2.67;1.75;;;461.30;2380.80;;;;;;5074385;28;20119;-77
2021/08/25 06:23:32;;;;;;;2.80;1.80;;;461.10;2380.80;;;;;;5092681;28;20059;-82
2021/08/25 06:25:57;;;;;;;4.38;1.88;;;461.10;2380.80;;;;;;5092595;28;20024;-81
2021/08/25 06:28:23;;;;;;;3.95;2.05;;;461.40;2380.80;;;;;;5092391;28;20009;-76
2021/08/25 06:30:49;;;;;;;4.60;1.75;;;461.40;2380.80;;;;;;5092971;28;20020;-80
2021/08/25 06:33:14;;;;;;;7.60;1.33;;;461.40;2380.80;;;;;;5092723;28;20490;-80
2021/08/25 06:35:40;;;;;;;3.55;2.13;;;461.50;2380.80;;;;;;5092289;28;20493;-82
2021/08/25 06:38:06;;;;;;;2.80;1.88;;;461.50;2380.80;;;;;;5092310;28;20053;-75
2021/08/25 06:40:32;;;;;;;6.85;2.20;;;461.40;2380.80;;;;;;5092324;28;20012;-75
2021/08/25 06:42:58;;;;;;;4.25;2.00;;;461.50;2380.80;;;;;;5094820;28;20027;-75
2021/08/25 06:45:24;;;;;;;3.47;1.60;;;461.40;2380.80;;;;;;5096357;28;20016;-81
2021/08/25 06:47:50;;;;;;;4.35;1.85;;;461.50;2380.80;;;;;;5096165;28;20424;-81
2021/08/25 06:50:16;;;;;;;2.90;1.80;;;461.50;2380.80;;;;;;5102359;28;20070;-81
2021/08/25 06:52:41;;;;;;;3.10;1.90;;;461.50;2380.80;;;;;;5101597;28;20507;-79
2021/08/25 06:55:08;;;;;;;3.42;2.22;;;461.50;2380.80;;;;;;5095852;28;20036;-79
2021/08/25 06:57:33;;;;;;;5.35;2.33;;;461.70;2380.80;;;;;;5096080;28;20040;-77
2021/08/25 06:59:59;;;;;;;4.70;2.70;;;461.70;2380.80;;;;;;5095707;28;20062;-81
2021/08/25 07:02:25;;;;;;;9.88;2.22;;;461.50;2380.80;;;;;;5095836;28;20017;-79
2021/08/25 07:04:50;;;;;;;4.40;2.13;;;461.40;2380.80;;;;;;5095821;28;20409;-81
2021/08/25 07:07:16;;;;;;;3.65;1.70;;;461.40;2380.80;;;;;;5077331;28;20067;-80
2021/08/25 07:09:42;;;;;;;3.53;1.90;;;461.40;2380.80;;;;;;5095820;28;20552;-81
2021/08/25 07:12:08;;;;;;;9.65;2.72;;;461.40;2380.80;;;;;;5095844;28;20381;-80
2021/08/25 07:14:34;;;;;;;9.27;2.60;;;461.40;2380.80;;;;;;5095469;28;20027;-80
2021/08/25 07:17:00;;;;;;;7.15;2.30;;;461.30;2380.80;;;;;;5095580;28;20050;-76
2021/08/25 07:19:26;;;;;;;6.80;2.60;;;461.10;2380.80;;;;;;5095157;28;20561;-80
2021/08/25 07:21:51;;;;;;;8.98;2.50;;;461.10;2380.80;;;;;;5095078;28;20132;-79
2021/08/25 07:24:17;;;;;;;5.65;3.00;;;461.10;2380.80;;;;;;5095122;28;20048;-80
2021/08/25 07:26:43;;;;;;;6.45;3.03;;;461.20;2380.80;;;;;;5095152;28;20017;-77
2021/08/25 07:29:09;;;;;;;7.78;2.55;;;461.20;2380.80;;;;;;5095543;28;20039;-81
2021/08/25 07:31:34;;;;;;;5.60;2.92;;;461.20;2380.80;;;;;;5107917;28;20024;-78
2021/08/25 07:34:00;;;;;;;4.60;2.38;;;461.20;2380.80;;;;;;5113963;28;20030;-77
2021/08/25 07:36:26;;;;;;;7.10;4.90;;;461.10;2380.80;;;;;;5113760;28;20031;-75
2021/08/25 07:38:52;;;;;;;17.50;11.25;;;461.10;2380.80;;;;;;5108212;28;20030;-79
2021/08/25 07:41:18;;;;;;;18.73;11.90;;;461.00;2380.80;;;;;;5095004;28;20012;-78
2021/08/25 07:43:44;;;;;;;14.55;8.75;;;461.00;2380.80;;;;;;5094382;28;20020;-78
2021/08/25 07:46:11;;;;;;;9.30;6.35;;;461.00;2380.80;;;;;;5094521;28;20077;-76
2021/08/25 07:48:37;;;;;;;6.45;4.10;;;461.10;2380.80;;;;;;5094644;28;20028;-80
2021/08/25 07:51:08;;;;;;;5.65;3.17;;;460.90;2380.80;;;;;;5076526;28;20051;-75
2021/08/25 07:53:35;;;;;;;6.60;3.72;;;460.80;2380.80;;;;;;5104297;28;20411;-77
2021/08/25 07:56:00;;;;;;;6.22;4.80;;;436.10;2355.20;;;;;;5111437;28;20082;-77
2021/08/25 07:58:26;;;;;;;7.43;5.68;;;460.80;2380.80;;;;;;5085010;28;20052;-76
2021/08/25 08:00:52;;;;;;;6.90;3.45;;;460.80;2380.80;;;;;;5094523;28;20020;-80
2021/08/25 08:03:18;;;;;;;6.28;3.33;;;460.90;2380.80;;;;;;5094473;28;20074;-77
2021/08/25 08:05:44;;;;;;;5.13;2.90;;;460.90;2380.80;;;;;;5094278;28;20748;-78
2021/08/25 08:08:10;;;;;;;6.70;2.65;;;461.00;2380.80;;;;;;5094234;28;20031;-78
2021/08/25 08:10:36;;;;;;;6.88;2.40;;;461.00;2380.80;;;;;;5094326;28;20389;-79
2021/08/25 08:13:01;;;;;;;6.22;2.72;;;436.10;2355.20;;;;;;5094323;28;20028;-79
2021/08/25 08:15:29;;;;;;;5.35;2.53;;;436.00;2355.20;;;;;;5094142;28;20032;-79
2021/08/25 08:17:56;;;;;;;3.90;2.50;;;435.90;2355.20;;;;;;5094208;28;20028;-78
2021/08/25 08:20:21;;;;;;;6.05;2.50;;;435.90;2355.20;;;;;;5100237;28;20024;-75
2021/08/25 08:22:48;;;;;;;6.35;3.28;;;435.90;2355.20;;;;;;5104886;28;20015;-80
2021/08/25 08:25:14;;;;;;;4.72;3.03;;;436.00;2355.20;;;;;;5100912;28;20016;-78
2021/08/25 08:27:41;;;;;;;5.88;3.30;;;436.00;2355.20;;;;;;5099954;28;20008;-80
2021/08/25 08:30:07;;;;;;;6.32;3.60;;;435.90;2355.20;;;;;;5099876;28;20024;-75
2021/08/25 08:32:34;;;;;;;5.88;3.72;;;435.90;2355.20;;;;;;5101003;28;20387;-80
2021/08/25 08:35:00;;;;;;;7.40;4.28;;;435.90;2355.20;;;;;;5104186;28;20108;-75
2021/08/25 08:37:26;;;;;;;7.13;3.00;;;435.70;2355.20;;;;;;5099734;28;20103;-76
2021/08/25 08:39:51;;;;;;;6.13;3.42;;;435.80;2355.20;;;;;;5105060;28;20027;-74
2021/08/25 08:42:34;;;;;;;6.78;3.83;;;435.60;2355.20;;;;;;5094055;28;20017;-76
2021/08/25 08:45:03;;;;;;;7.57;3.90;;;435.60;2355.20;;;;;;5105317;28;20027;-76
2021/08/25 08:47:30;;;;;;;6.15;3.85;;;435.60;2355.20;;;;;;5091653;28;20077;-74
2021/08/25 08:49:58;;;;;;;6.15;3.60;;;435.70;2355.20;;;;;;5099496;28;20039;-76
2021/08/25 08:52:25;;;;;;;6.85;3.80;;;435.70;2355.20;;;;;;5099281;28;20066;-78
2021/08/25 08:54:54;;;;;;;6.28;4.20;;;435.50;2355.20;;;;;;5094153;28;20048;-75
2021/08/25 08:57:22;;;;;;;4.78;3.03;;;435.60;2355.20;;;;;;5093314;28;20120;-79
2021/08/25 08:59:48;;;;;;;4.45;3.42;;;435.70;2355.20;;;;;;5090995;28;20024;-75
2021/08/25 09:02:37;;;;;;;10.52;4.45;;;435.80;2355.20;;;;;;5093007;28;20031;-75
2021/08/25 09:05:27;;;;;;;5.40;3.35;;;435.90;2355.20;;;;;;5090585;28;20148;-76
2021/08/25 09:08:00;;;;;;;7.75;4.97;;;435.90;2355.20;;;;;;5092255;28;20020;-74
2021/08/25 09:10:33;;;;;;;7.43;4.00;;;435.70;2355.20;;;;;;5091377;28;20119;-77
2021/08/25 09:13:05;;;;;;;9.38;3.92;;;435.90;2355.20;;;;;;5093990;28;20028;-75
2021/08/25 09:15:34;;;;;;;7.45;4.65;;;435.80;2355.20;;;;;;5093280;28;20028;-75
2021/08/25 09:18:06;;;;;;;6.38;3.47;;;435.90;2355.20;;;;;;5093968;28;20023;-75
2021/08/25 09:20:35;;;;;;;7.20;4.50;;;435.90;2355.20;;;;;;5093616;28;20381;-76
2021/08/25 09:23:13;;;;;;;9.93;4.55;;;435.90;2355.20;;;;;;5093465;28;20035;-80
2021/08/25 09:25:40;;;;;;;6.85;4.47;;;435.90;2355.20;;;;;;5093736;28;20020;-77
2021/08/25 09:28:08;;;;;;;6.75;4.00;;;436.00;2355.20;;;;;;5092939;28;20027;-81
2021/08/25 09:30:54;;;;;;;7.00;3.53;;;436.00;2355.20;;;;;;5100058;28;20028;-84
2021/08/25 09:33:22;;;;;;;4.60;3.50;;;435.90;2355.20;;;;;;5101367;28;20020;-85
2021/08/25 09:35:48;;;;;;;5.43;3.92;;;460.80;2380.80;;;;;;5075157;28;20460;-84
2021/08/25 09:38:21;;;;;;;6.60;4.60;;;436.10;2355.20;;;;;;5094019;28;20017;-81
2021/08/25 09:40:49;;;;;;;7.05;4.20;;;460.80;2380.80;;;;;;5104327;28;20187;-83
2021/08/25 09:43:31;;;;;;;6.60;4.53;;;460.90;2380.80;;;;;;5113568;28;20266;-76
2021/08/25 09:46:22;;;;;;;6.10;4.30;;;460.90;2380.80;;;;;;5098343;28;20020;-79
2021/08/25 09:48:54;;;;;;;5.28;3.63;;;461.00;2380.80;;;;;;5107339;28;20082;-76
2021/08/25 09:51:40;;;;;;;6.70;4.32;;;461.10;2380.80;;;;;;5105579;28;20098;-77
2021/08/25 09:54:15;;;;;;;11.98;5.13;;;461.10;2380.80;;;;;;5083690;28;20385;-79
2021/08/25 09:56:42;;;;;;;8.73;6.28;;;461.10;2380.80;;;;;;5101328;28;20030;-79
2021/08/25 09:59:11;;;;;;;8.50;5.75;;;461.10;2380.80;;;;;;5113056;28;20023;-79
2021/08/25 10:01:38;;;;;;;7.40;4.90;;;461.40;2380.80;;;;;;5095395;28;20016;-78
2021/08/25 10:04:06;;;;;;;5.15;4.60;;;461.30;2380.80;;;;;;5111497;28;20070;-76
2021/08/25 10:06:36;;;;;;;7.72;4.28;;;461.10;2380.80;;;;;;5106196;28;20047;-76
2021/08/25 10:09:06;;;;;;;7.20;4.70;;;461.20;2380.80;;;;;;5103081;28;20030;-80
2021/08/25 10:11:33;;;;;;;8.27;5.65;;;461.30;2380.80;;;;;;5092944;28;20020;-74
2021/08/25 10:14:05;;;;;;;6.95;5.32;;;461.40;2380.80;;;;;;5092864;28;20028;-76
2021/08/25 10:16:48;;;;;;;8.30;5.53;;;461.30;2380.80;;;;;;5092548;28;20553;-78
2021/08/25 10:19:39;;;;;;;7.55;5.75;;;461.30;2380.80;;;;;;5097204;28;20507;-77
2021/08/25 10:22:16;;;;;;;6.50;4.93;;;461.30;2380.80;;;;;;5085046;28;20026;-78
2021/08/25 10:25:04;;;;;;;7.10;5.43;;;461.30;2380.80;;;;;;5097593;28;20052;-77
2021/08/25 10:27:32;;;;;;;9.75;4.95;;;461.40;2380.80;;;;;;5096878;28;20043;-79
2021/08/25 10:30:01;;;;;;;8.43;5.28;;;461.40;2380.80;;;;;;5097523;28;20131;-77
2021/08/25 10:32:31;;;;;;;7.63;4.65;;;461.40;2380.80;;;;;;5095907;28;20133;-76
2021/08/25 10:35:11;;;;;;;6.93;5.10;;;461.50;2380.80;;;;;;5096210;28;20077;-77
2021/08/25 10:37:38;;;;;;;6.05;4.18;;;461.50;2380.80;;;;;;5094701;28;20024;-77
2021/08/25 10:40:05;;;;;;;7.38;4.82;;;461.50;2380.80;;;;;;5108539;28;20387;-79
2021/08/25 10:42:44;;;;;;;7.00;5.32;;;461.40;2380.80;;;;;;5095763;28;20024;-74
2021/08/25 10:45:10;;;;;;;7.53;4.80;;;461.40;2380.80;;;;;;5093468;28;20051;-77
2021/08/25 10:47:58;;;;;;;12.75;6.65;;;461.50;2380.80;;;;;;5095796;28;20026;-76
2021/08/25 10:50:45;;;;;;;12.07;6.32;;;461.70;2380.80;;;;;;5095808;28;20040;-78
2021/08/25 10:53:34;;;;;;;10.77;7.35;;;461.70;2380.80;;;;;;5094810;28;20044;-80
2021/08/25 10:56:23;;;;;;;9.45;7.10;;;461.70;2380.80;;;;;;5033579;28;20410;-75
2021/08/25 10:59:16;;;;;;;6.68;5.28;;;461.60;2380.80;;;;;;4955961;29;20550;-76
2021/08/25 11:01:43;;;;;;;8.32;5.00;;;461.70;2380.80;;;;;;4950963;29;20055;-82
2021/08/25 11:04:16;;;;;;;7.22;4.85;;;461.70;2380.80;;;;;;4955671;29;20137;-75
2021/08/25 11:06:54;;;;;;;8.05;5.57;;;461.70;2380.80;;;;;;4956177;29;20032;-84
2021/08/25 11:09:34;;;;;;;7.63;6.18;;;461.70;2380.80;;;;;;4955550;29;20039;-76
2021/08/25 11:12:12;;;;;;;9.25;5.45;;;486.40;2380.80;;;;;;4954589;29;20004;-75
2021/08/25 11:14:49;;;;;;;8.57;5.75;;;486.50;2380.80;;;;;;4971756;29;20531;-81
2021/08/25 11:17:26;;;;;;;7.60;5.80;;;486.50;2380.80;;;;;;4961803;29;20035;-85
2021/08/25 11:19:52;;;;;;;9.52;5.57;;;461.70;2380.80;;;;;;4955595;29;20095;-86
2021/08/25 11:22:24;;;;;;;8.30;5.80;;;486.40;2380.80;;;;;;4955132;29;20492;-81
2021/08/25 11:25:11;;;;;;;8.75;6.00;;;486.60;2380.80;;;;;;4955343;29;20032;-80
2021/08/25 11:27:54;;;;;;;7.57;5.95;;;486.50;2380.80;;;;;;4954683;28;20094;-82
2021/08/25 11:30:27;;;;;;;8.52;5.63;;;486.60;2380.80;;;;;;4954718;29;20039;-78
2021/08/25 11:33:04;;;;;;;9.85;5.75;;;486.80;2380.80;;;;;;4979352;28;20508;-81
2021/08/25 11:35:36;;;;;;;8.20;6.20;;;486.80;2380.80;;;;;;5040457;28;20036;-79
2021/08/25 11:38:07;;;;;;;9.05;6.15;;;486.70;2380.80;;;;;;5094834;28;20095;-78
2021/08/25 11:40:37;;;;;;;8.85;6.13;;;486.70;2380.80;;;;;;5092627;28;20068;-79
2021/08/25 11:43:08;;;;;;;9.07;6.38;;;486.70;2380.80;;;;;;5094809;28;20048;-77
2021/08/25 11:45:34;;;;;;;10.63;5.88;;;486.70;2380.80;;;;;;5093915;28;20020;-83
2021/08/25 11:48:02;;;;;;;6.97;5.88;;;486.50;2380.80;;;;;;5113297;28;20020;-87
2021/08/25 11:50:34;;;;;;;10.90;6.07;;;486.60;2380.80;;;;;;5108596;28;20036;-78
2021/08/25 11:53:00;;;;;;;10.20;6.65;;;486.70;2380.80;;;;;;5103808;28;20153;-82
2021/08/25 11:55:27;;;;;;;8.93;6.13;;;486.80;2380.80;;;;;;5094572;28;20565;-77
2021/08/25 11:57:57;;;;;;;10.82;5.57;;;486.60;2380.80;;;;;;5094888;28;20023;-78
2021/08/25 12:00:37;;;;;;;10.70;6.20;;;486.50;2380.80;;;;;;5110012;28;20041;-79
2021/08/25 12:03:03;;;;;;;8.95;6.65;;;486.60;2380.80;;;;;;5105539;28;20122;-79
2021/08/25 12:05:33;;;;;;;11.98;5.15;;;486.50;2380.80;;;;;;5103905;28;20035;-76
2021/08/25 12:08:04;;;;;;;6.65;5.72;;;486.60;2380.80;;;;;;5104085;28;20016;-77
2021/08/25 12:10:31;;;;;;;8.30;6.25;;;486.60;2380.80;;;;;;5108787;28;20027;-80
2021/08/25 12:12:57;;;;;;;9.75;6.55;;;486.50;2380.80;;;;;;5108148;28;20046;-75
2021/08/25 12:15:41;;;;;;;10.13;7.13;;;486.70;2380.80;;;;;;5106860;28;20027;-75
2021/08/25 12:18:07;;;;;;;10.50;7.25;;;486.80;2380.80;;;;;;5107274;28;20037;-76
2021/08/25 12:20:37;;;;;;;8.25;5.72;;;487.00;2380.80;;;;;;5107478;28;20023;-78
2021/08/25 12:23:04;;;;;;;9.30;6.53;;;486.90;2380.80;;;;;;5108587;28;20114;-80